EZY2W EHAM-EGCC
Flight info
| Callsign | EZY2W |
|---|---|
| Flight time | N/A |
| Altitude | 24000 |
| Route | BERGI L60 OTBED |
| Aircraft | A20N/M-SDE2E3FGHIRWXY/LB1 |
Departure
| Time | N/A |
|---|---|
| Airport | Amsterdam Airport Schiphol (EHAM) |
Arrival
| Time | 2026-05-06 20:50 |
|---|---|
| Airport | Manchester Airport (EGCC) |
| Time | Latitude | Longitude | Altitude | Speed | Heading |
|---|---|---|---|---|---|
| 2026-05-06 20:09 | 53.11450 | 0.79921 | 24046 ft | 390 kts | 290° |
| 2026-05-06 20:09 | 53.12423 | 0.75692 | 24045 ft | 392 kts | 290° |
| 2026-05-06 20:10 | 53.13399 | 0.71439 | 24045 ft | 392 kts | 290° |
| 2026-05-06 20:10 | 53.14366 | 0.67219 | 24045 ft | 389 kts | 290° |
| 2026-05-06 20:10 | 53.15321 | 0.63044 | 24045 ft | 391 kts | 290° |
| 2026-05-06 20:10 | 53.16289 | 0.58801 | 24048 ft | 391 kts | 290° |
| 2026-05-06 20:11 | 53.17253 | 0.54567 | 24048 ft | 389 kts | 290° |
| 2026-05-06 20:11 | 53.18214 | 0.50343 | 24048 ft | 389 kts | 290° |
| 2026-05-06 20:11 | 53.19176 | 0.46099 | 24048 ft | 392 kts | 290° |
| 2026-05-06 20:11 | 53.20141 | 0.41833 | 24047 ft | 392 kts | 290° |
| 2026-05-06 20:12 | 53.21101 | 0.37586 | 24051 ft | 392 kts | 290° |
| 2026-05-06 20:12 | 53.22064 | 0.33317 | 24052 ft | 392 kts | 290° |
| 2026-05-06 20:12 | 53.23020 | 0.29066 | 24050 ft | 392 kts | 290° |
| 2026-05-06 20:12 | 53.23966 | 0.24853 | 24049 ft | 392 kts | 290° |
| 2026-05-06 20:13 | 53.24921 | 0.20594 | 24048 ft | 392 kts | 290° |
| 2026-05-06 20:13 | 53.25874 | 0.16334 | 24050 ft | 392 kts | 290° |
| 2026-05-06 20:13 | 53.26827 | 0.12077 | 24056 ft | 391 kts | 290° |
| 2026-05-06 20:13 | 53.27780 | 0.07808 | 24059 ft | 391 kts | 290° |
| 2026-05-06 20:14 | 53.28731 | 0.03544 | 24059 ft | 391 kts | 290° |
| 2026-05-06 20:14 | 53.29759 | -0.00657 | 24061 ft | 392 kts | 295° |
| 2026-05-06 20:14 | 53.30972 | -0.04766 | 24057 ft | 393 kts | 297° |
| 2026-05-06 20:14 | 53.32223 | -0.08826 | 24038 ft | 393 kts | 297° |
| 2026-05-06 20:15 | 53.33467 | -0.12898 | 24048 ft | 392 kts | 296° |
| 2026-05-06 20:15 | 53.34690 | -0.16987 | 24060 ft | 392 kts | 296° |
| 2026-05-06 20:15 | 53.35897 | -0.21089 | 24061 ft | 393 kts | 296° |
| 2026-05-06 20:15 | 53.37096 | -0.25199 | 24050 ft | 393 kts | 295° |
| 2026-05-06 20:16 | 53.38273 | -0.29254 | 24042 ft | 393 kts | 295° |
| 2026-05-06 20:16 | 53.39481 | -0.33429 | 24060 ft | 393 kts | 295° |
| 2026-05-06 20:16 | 53.40657 | -0.37501 | 24062 ft | 393 kts | 295° |
| 2026-05-06 20:16 | 53.41847 | -0.41624 | 24048 ft | 393 kts | 295° |
| 2026-05-06 20:17 | 53.43031 | -0.45737 | 24046 ft | 393 kts | 295° |
| 2026-05-06 20:17 | 53.44224 | -0.49885 | 24075 ft | 393 kts | 295° |
| 2026-05-06 20:17 | 53.45409 | -0.54013 | 24075 ft | 393 kts | 295° |
| 2026-05-06 20:17 | 53.46593 | -0.58143 | 24059 ft | 393 kts | 295° |
| 2026-05-06 20:18 | 53.47777 | -0.62282 | 24072 ft | 393 kts | 295° |
| 2026-05-06 20:18 | 53.48955 | -0.66409 | 24073 ft | 393 kts | 295° |
| 2026-05-06 20:18 | 53.50139 | -0.70561 | 24071 ft | 393 kts | 295° |
| 2026-05-06 20:18 | 53.51314 | -0.74690 | 23947 ft | 390 kts | 295° |
| 2026-05-06 20:19 | 53.52480 | -0.78794 | 23544 ft | 388 kts | 295° |
| 2026-05-06 20:19 | 53.53639 | -0.82880 | 22959 ft | 386 kts | 295° |
| 2026-05-06 20:19 | 53.54787 | -0.86936 | 22344 ft | 382 kts | 295° |
| 2026-05-06 20:19 | 53.55924 | -0.90960 | 21734 ft | 379 kts | 295° |
| 2026-05-06 20:20 | 53.57050 | -0.94952 | 21134 ft | 376 kts | 295° |
| 2026-05-06 20:20 | 53.58166 | -0.98917 | 20544 ft | 373 kts | 295° |
| 2026-05-06 20:20 | 53.59258 | -1.02800 | 19972 ft | 370 kts | 295° |
| 2026-05-06 20:20 | 53.60330 | -1.06735 | 19398 ft | 368 kts | 291° |
| 2026-05-06 20:21 | 53.61144 | -1.10795 | 18847 ft | 365 kts | 284° |
| 2026-05-06 20:21 | 53.61712 | -1.14952 | 18300 ft | 362 kts | 282° |
| 2026-05-06 20:21 | 53.62271 | -1.19076 | 17697 ft | 359 kts | 283° |
| 2026-05-06 20:21 | 53.62832 | -1.23156 | 17118 ft | 356 kts | 283° |
| 2026-05-06 20:22 | 53.63386 | -1.27194 | 16554 ft | 353 kts | 283° |
| 2026-05-06 20:22 | 53.63933 | -1.31203 | 15995 ft | 350 kts | 283° |
| 2026-05-06 20:22 | 53.64467 | -1.35137 | 15447 ft | 347 kts | 283° |
| 2026-05-06 20:22 | 53.65002 | -1.39096 | 14904 ft | 345 kts | 283° |
| 2026-05-06 20:23 | 53.65531 | -1.43023 | 14371 ft | 342 kts | 283° |
| 2026-05-06 20:23 | 53.66055 | -1.46925 | 13843 ft | 340 kts | 283° |
| 2026-05-06 20:23 | 53.66574 | -1.50798 | 13271 ft | 338 kts | 283° |
| 2026-05-06 20:23 | 53.67088 | -1.54642 | 12703 ft | 335 kts | 283° |
| 2026-05-06 20:24 | 53.67598 | -1.58464 | 12187 ft | 332 kts | 283° |
| 2026-05-06 20:24 | 53.68100 | -1.62238 | 11605 ft | 331 kts | 283° |
| 2026-05-06 20:24 | 53.68602 | -1.66024 | 11080 ft | 329 kts | 283° |
| 2026-05-06 20:24 | 53.69096 | -1.69759 | 10579 ft | 326 kts | 283° |
| 2026-05-06 20:25 | 53.69585 | -1.73473 | 10243 ft | 318 kts | 283° |
| 2026-05-06 20:25 | 53.70055 | -1.77047 | 10095 ft | 305 kts | 283° |
| 2026-05-06 20:25 | 53.70504 | -1.80467 | 9978 ft | 291 kts | 283° |
| 2026-05-06 20:25 | 53.70926 | -1.83726 | 9839 ft | 279 kts | 281° |
| 2026-05-06 20:26 | 53.70911 | -1.86954 | 9548 ft | 272 kts | 263° |
| 2026-05-06 20:26 | 53.70647 | -1.90042 | 9418 ft | 260 kts | 263° |
| 2026-05-06 20:26 | 53.70401 | -1.93024 | 9171 ft | 254 kts | 263° |
| 2026-05-06 20:26 | 53.70160 | -1.95950 | 8820 ft | 251 kts | 263° |
| 2026-05-06 20:27 | 53.69922 | -1.98872 | 8398 ft | 252 kts | 263° |
| 2026-05-06 20:27 | 53.69684 | -2.01751 | 8106 ft | 248 kts | 264° |
| 2026-05-06 20:27 | 53.69444 | -2.04620 | 7771 ft | 246 kts | 264° |
| 2026-05-06 20:27 | 53.69208 | -2.07479 | 7413 ft | 246 kts | 264° |
| 2026-05-06 20:28 | 53.68973 | -2.10315 | 7150 ft | 241 kts | 263° |
| 2026-05-06 20:28 | 53.68742 | -2.13079 | 7047 ft | 240 kts | 263° |
| 2026-05-06 20:28 | 53.68505 | -2.15903 | 7039 ft | 243 kts | 262° |
| 2026-05-06 20:28 | 53.67906 | -2.18535 | 7036 ft | 245 kts | 235° |
| 2026-05-06 20:29 | 53.66780 | -2.20723 | 7039 ft | 248 kts | 230° |
| 2026-05-06 20:29 | 53.65639 | -2.22840 | 7039 ft | 247 kts | 230° |
| 2026-05-06 20:29 | 53.64482 | -2.24980 | 7040 ft | 246 kts | 230° |
| 2026-05-06 20:29 | 53.63321 | -2.27124 | 7043 ft | 247 kts | 230° |
| 2026-05-06 20:30 | 53.62161 | -2.29255 | 7033 ft | 247 kts | 230° |
| 2026-05-06 20:30 | 53.59842 | -2.33519 | 7035 ft | 247 kts | 230° |
| 2026-05-06 20:30 | 53.58686 | -2.35651 | 7032 ft | 247 kts | 230° |
| 2026-05-06 20:31 | 53.57525 | -2.37782 | 7029 ft | 247 kts | 230° |
| 2026-05-06 20:31 | 53.56370 | -2.39905 | 6970 ft | 245 kts | 230° |
| 2026-05-06 20:31 | 53.55224 | -2.42004 | 6713 ft | 243 kts | 230° |
| 2026-05-06 20:31 | 53.54093 | -2.44076 | 6407 ft | 243 kts | 230° |
| 2026-05-06 20:32 | 53.52956 | -2.46155 | 6162 ft | 238 kts | 230° |
| 2026-05-06 20:32 | 53.51821 | -2.48246 | 6066 ft | 245 kts | 230° |
| 2026-05-06 20:32 | 53.50686 | -2.50337 | 6025 ft | 241 kts | 230° |
| 2026-05-06 20:32 | 53.49398 | -2.52153 | 6031 ft | 246 kts | 208° |
| 2026-05-06 20:33 | 53.47734 | -2.52852 | 6026 ft | 250 kts | 190° |
| 2026-05-06 20:33 | 53.46005 | -2.53228 | 6026 ft | 250 kts | 189° |
| 2026-05-06 20:33 | 53.44300 | -2.53600 | 6018 ft | 249 kts | 190° |
| 2026-05-06 20:33 | 53.42587 | -2.53972 | 5845 ft | 247 kts | 190° |
| 2026-05-06 20:34 | 53.40885 | -2.54352 | 5556 ft | 246 kts | 189° |
| 2026-05-06 20:34 | 53.39202 | -2.54739 | 5231 ft | 244 kts | 190° |
| 2026-05-06 20:34 | 53.37521 | -2.55122 | 4927 ft | 242 kts | 189° |
| 2026-05-06 20:34 | 53.35861 | -2.55539 | 4617 ft | 240 kts | 190° |
| 2026-05-06 20:35 | 53.34225 | -2.55964 | 4398 ft | 234 kts | 189° |
| 2026-05-06 20:35 | 53.32646 | -2.56319 | 4168 ft | 226 kts | 178° |
| 2026-05-06 20:35 | 53.31170 | -2.55590 | 3819 ft | 224 kts | 146° |
| 2026-05-06 20:35 | 53.30076 | -2.53760 | 3529 ft | 220 kts | 130° |
| 2026-05-06 20:36 | 53.29106 | -2.51794 | 3227 ft | 217 kts | 130° |
| 2026-05-06 20:36 | 53.28171 | -2.49905 | 3039 ft | 208 kts | 130° |
| 2026-05-06 20:36 | 53.27201 | -2.47965 | 2994 ft | 220 kts | 130° |
| 2026-05-06 20:36 | 53.26305 | -2.45920 | 2988 ft | 217 kts | 112° |
| 2026-05-06 20:37 | 53.26234 | -2.43443 | 3000 ft | 223 kts | 72° |
| 2026-05-06 20:37 | 53.27181 | -2.41389 | 2992 ft | 228 kts | 38° |
| 2026-05-06 20:37 | 53.28482 | -2.39889 | 2799 ft | 225 kts | 39° |
| 2026-05-06 20:37 | 53.29652 | -2.38176 | 2483 ft | 222 kts | 49° |
| 2026-05-06 20:38 | 53.30674 | -2.36252 | 2162 ft | 219 kts | 53° |
| 2026-05-06 20:38 | 53.31602 | -2.34306 | 1869 ft | 216 kts | 52° |
| 2026-05-06 20:38 | 53.32543 | -2.32354 | 1526 ft | 215 kts | 52° |
| 2026-05-06 20:38 | 53.33616 | -2.30558 | 1590 ft | 228 kts | 33° |
| 2026-05-06 20:39 | 53.35041 | -2.29119 | 2067 ft | 257 kts | 43° |
| 2026-05-06 20:39 | 53.36326 | -2.26906 | 2296 ft | 278 kts | 53° |
| 2026-05-06 20:39 | 53.37431 | -2.24154 | 2546 ft | 285 kts | 63° |
| 2026-05-06 20:39 | 53.38403 | -2.21342 | 2779 ft | 271 kts | 59° |
| 2026-05-06 20:40 | 53.39363 | -2.18795 | 2941 ft | 246 kts | 68° |
| 2026-05-06 20:40 | 53.39646 | -2.16135 | 2996 ft | 226 kts | 99° |
| 2026-05-06 20:40 | 53.39344 | -2.14462 | 2995 ft | 221 kts | 120° |
| 2026-05-06 20:40 | 53.38341 | -2.12605 | 3002 ft | 218 kts | 139° |
| 2026-05-06 20:41 | 53.37186 | -2.11007 | 2999 ft | 215 kts | 140° |
| 2026-05-06 20:41 | 53.35996 | -2.09477 | 2990 ft | 217 kts | 152° |
| 2026-05-06 20:41 | 53.34531 | -2.08978 | 3040 ft | 221 kts | 185° |
| 2026-05-06 20:41 | 53.33109 | -2.10009 | 3379 ft | 231 kts | 220° |
| 2026-05-06 20:42 | 53.32036 | -2.12050 | 3655 ft | 230 kts | 230° |
| 2026-05-06 20:42 | 53.31050 | -2.14120 | 3751 ft | 227 kts | 230° |
| 2026-05-06 20:42 | 53.30050 | -2.16186 | 3873 ft | 229 kts | 230° |
| 2026-05-06 20:42 | 53.29049 | -2.18246 | 3973 ft | 228 kts | 230° |
| 2026-05-06 20:43 | 53.28042 | -2.20314 | 3999 ft | 229 kts | 230° |
| 2026-05-06 20:43 | 53.27045 | -2.22364 | 3999 ft | 227 kts | 230° |
| 2026-05-06 20:43 | 53.26063 | -2.24389 | 4002 ft | 227 kts | 230° |
| 2026-05-06 20:43 | 53.25060 | -2.26444 | 3994 ft | 228 kts | 230° |
| 2026-05-06 20:44 | 53.24059 | -2.28495 | 3998 ft | 228 kts | 230° |
| 2026-05-06 20:44 | 53.23053 | -2.30547 | 4001 ft | 229 kts | 230° |
| 2026-05-06 20:44 | 53.22043 | -2.32600 | 4000 ft | 228 kts | 230° |
| 2026-05-06 20:44 | 53.21030 | -2.34651 | 3994 ft | 229 kts | 230° |
| 2026-05-06 20:45 | 53.20003 | -2.36736 | 3997 ft | 238 kts | 230° |
| 2026-05-06 20:45 | 53.18947 | -2.38876 | 3994 ft | 238 kts | 230° |
| 2026-05-06 20:45 | 53.18080 | -2.41209 | 3995 ft | 239 kts | 252° |
| 2026-05-06 20:45 | 53.17997 | -2.43938 | 3901 ft | 239 kts | 283° |
| 2026-05-06 20:46 | 53.18756 | -2.46364 | 3647 ft | 239 kts | 315° |
| 2026-05-06 20:46 | 53.20030 | -2.48219 | 3556 ft | 245 kts | 320° |
| 2026-05-06 20:46 | 53.21424 | -2.49662 | 3500 ft | 233 kts | 344° |
| 2026-05-06 20:46 | 53.23021 | -2.49720 | 3504 ft | 236 kts | 17° |
| 2026-05-06 20:47 | 53.24462 | -2.48484 | 3488 ft | 231 kts | 41° |
| 2026-05-06 20:47 | 53.25595 | -2.46619 | 3419 ft | 227 kts | 50° |
| 2026-05-06 20:47 | 53.26573 | -2.44612 | 3156 ft | 220 kts | 54° |
| 2026-05-06 20:47 | 53.27539 | -2.42646 | 2892 ft | 218 kts | 53° |
| 2026-05-06 20:48 | 53.28497 | -2.40673 | 2326 ft | 218 kts | 53° |
| 2026-05-06 20:48 | 53.29440 | -2.38738 | 2134 ft | 214 kts | 53° |
| 2026-05-06 20:48 | 53.30377 | -2.36823 | 1834 ft | 203 kts | 55° |
| 2026-05-06 20:48 | 53.31232 | -2.35122 | 1434 ft | 187 kts | 51° |
| 2026-05-06 20:49 | 53.32034 | -2.33498 | 871 ft | 179 kts | 55° |
| 2026-05-06 20:49 | 53.32795 | -2.31909 | 390 ft | 170 kts | 52° |
| 2026-05-06 20:49 | 53.33503 | -2.30442 | 200 ft | 151 kts | 51° |
| 2026-05-06 20:49 | 53.34038 | -2.29323 | 209 ft | 93 kts | 51° |
| 2026-05-06 20:50 | 53.34330 | -2.28735 | 213 ft | 45 kts | 45° |
| 2026-05-06 20:50 | 53.34472 | -2.28570 | 220 ft | 11 kts | 28° |
| 2026-05-06 20:50 | 53.34540 | -2.28515 | 223 ft | 11 kts | 24° |
| 2026-05-06 20:50 | 53.34606 | -2.28467 | 230 ft | 9 kts | 22° |
| 2026-05-06 20:51 | 53.34663 | -2.28431 | 231 ft | 9 kts | 20° |
| 2026-05-06 20:51 | 53.34720 | -2.28384 | 232 ft | 10 kts | 38° |
| 2026-05-06 20:51 | 53.34765 | -2.28295 | 234 ft | 10 kts | 51° |
| 2026-05-06 20:51 | 53.34810 | -2.28200 | 238 ft | 11 kts | 52° |
| 2026-05-06 20:52 | 53.34862 | -2.28088 | 237 ft | 14 kts | 52° |
| 2026-05-06 20:52 | 53.34927 | -2.27953 | 237 ft | 15 kts | 50° |
| 2026-05-06 20:52 | 53.34997 | -2.27811 | 238 ft | 17 kts | 50° |
| 2026-05-06 20:52 | 53.35070 | -2.27661 | 243 ft | 16 kts | 51° |
| 2026-05-06 20:53 | 53.35139 | -2.27517 | 245 ft | 16 kts | 51° |
| 2026-05-06 20:53 | 53.35210 | -2.27372 | 250 ft | 16 kts | 51° |
| 2026-05-06 20:53 | 53.35278 | -2.27237 | 251 ft | 10 kts | 43° |
| 2026-05-06 20:53 | 53.35330 | -2.27196 | 256 ft | 5 kts | 11° |
| 2026-05-06 20:54 | 53.35331 | -2.27196 | 256 ft | 0 kts | 9° |
| 2026-05-06 20:54 | 53.35335 | -2.27195 | 256 ft | 5 kts | 9° |
| 2026-05-06 20:54 | 53.35398 | -2.27226 | 259 ft | 12 kts | 326° |
| 2026-05-06 20:55 | 53.35486 | -2.27340 | 262 ft | 19 kts | 322° |
| 2026-05-06 20:55 | 53.35586 | -2.27475 | 254 ft | 6 kts | 320° |
| 2026-05-06 20:55 | 53.35616 | -2.27516 | 250 ft | 0 kts | 320° |
| 2026-05-06 20:56 | 53.35638 | -2.27547 | 247 ft | 9 kts | 320° |
| 2026-05-06 20:56 | 53.35704 | -2.27619 | 247 ft | 13 kts | 336° |
| 2026-05-06 20:56 | 53.35793 | -2.27697 | 247 ft | 16 kts | 318° |
| 2026-05-06 20:57 | 53.35874 | -2.27830 | 247 ft | 14 kts | 349° |
| 2026-05-06 20:57 | 53.35981 | -2.27868 | 247 ft | 17 kts | 331° |
| 2026-05-06 20:57 | 53.36091 | -2.27880 | 247 ft | 16 kts | 338° |
| 2026-05-06 20:57 | 53.36177 | -2.28016 | 247 ft | 18 kts | 314° |
| 2026-05-06 20:58 | 53.36261 | -2.28069 | 247 ft | 14 kts | 9° |
| 2026-05-06 20:58 | 53.36354 | -2.27997 | 247 ft | 16 kts | 41° |
| 2026-05-06 20:58 | 53.36425 | -2.27937 | 247 ft | 0 kts | 348° |
| 2026-05-06 20:58 | 53.36437 | -2.27945 | 247 ft | 4 kts | 338° |
| 2026-05-06 20:59 | 53.36485 | -2.27917 | 247 ft | 11 kts | 36° |
| 2026-05-06 20:59 | 53.36524 | -2.27858 | 247 ft | 0 kts | 44° |